createdAt,value
2019-01-26T00:00:50.643Z,99258.17
2019-01-26T00:03:25.343Z,99236.78
2019-01-26T00:05:57.898Z,99247.85
2019-01-26T00:08:30.739Z,99236.18
2019-01-26T00:11:02.448Z,99232.94
2019-01-26T00:13:33.229Z,99235.81
2019-01-26T00:16:03.914Z,99234.25
2019-01-26T00:18:34.390Z,99231.07
2019-01-26T00:21:06.122Z,99232.84
2019-01-26T00:23:37.275Z,99234.74
2019-01-26T00:26:07.936Z,99234.28
2019-01-26T00:28:38.819Z,99224.28
2019-01-26T00:31:09.988Z,99224.56
2019-01-26T00:33:43.347Z,99209.50
2019-01-26T00:36:14.850Z,99210.17
2019-01-26T00:38:45.227Z,99200.26
2019-01-26T00:41:17.003Z,99215.12
2019-01-26T00:43:48.158Z,99213.85
2019-01-26T00:46:18.956Z,99207.65
2019-01-26T00:48:50.837Z,99200.52
2019-01-26T00:51:23.901Z,99196.83
2019-01-26T00:53:54.965Z,99210.36
2019-01-26T00:56:27.987Z,99200.98
2019-01-26T00:59:00.057Z,99210.24
2019-01-26T01:01:30.977Z,99210.24
2019-01-26T01:04:05.924Z,99209.39
2019-01-26T01:06:37.880Z,99196.94
2019-01-26T01:09:09.877Z,99191.81
2019-01-26T01:11:41.039Z,99202.55
2019-01-26T01:14:11.465Z,99193.95
2019-01-26T01:16:41.993Z,99197.03
2019-01-26T01:19:12.887Z,99189.98
2019-01-26T01:21:44.053Z,99190.30
2019-01-26T01:24:14.673Z,99188.62
2019-01-26T01:26:45.630Z,99198.98
2019-01-26T01:29:16.381Z,99181.04
2019-01-26T01:31:47.255Z,99176.51
2019-01-26T01:34:18.299Z,99171.09
2019-01-26T01:36:49.116Z,99164.46
2019-01-26T01:39:20.092Z,99168.62
2019-01-26T01:41:50.868Z,99178.63
2019-01-26T01:44:22.014Z,99162.78
2019-01-26T01:46:52.924Z,99165.94
2019-01-26T01:49:24.110Z,99161.44
2019-01-26T01:51:54.635Z,99152.48
2019-01-26T01:54:25.989Z,99146.92
2019-01-26T01:56:56.632Z,99130.22
2019-01-26T01:59:27.939Z,99143.75
2019-01-26T02:01:58.414Z,99135.98
2019-01-26T02:04:29.259Z,99126.41
2019-01-26T02:07:00.207Z,99113.52
2019-01-26T02:09:31.023Z,99109.83
2019-01-26T02:12:02.057Z,99114.10
2019-01-26T02:14:32.728Z,99112.48
2019-01-26T02:17:03.454Z,99143.00
2019-01-26T02:19:34.190Z,99132.09
2019-01-26T02:22:05.559Z,99132.14
2019-01-26T02:24:36.556Z,99110.73
2019-01-26T02:27:07.429Z,99114.74
2019-01-26T02:29:38.593Z,99114.91
2019-01-26T02:32:09.168Z,99109.83
2019-01-26T02:34:40.068Z,99118.91
2019-01-26T02:37:10.470Z,99120.99
2019-01-26T02:39:41.378Z,99123.20
2019-01-26T02:42:12.559Z,99141.16
2019-01-26T02:44:43.480Z,99130.20
2019-01-26T02:47:14.339Z,99123.63
2019-01-26T02:49:45.365Z,99132.52
2019-01-26T02:52:16.355Z,99119.36
2019-01-26T02:54:47.423Z,99105.16
2019-01-26T02:57:18.314Z,99096.73
2019-01-26T02:59:48.688Z,99103.55
2019-01-26T03:02:20.174Z,99092.64
2019-01-26T03:04:50.582Z,99100.33
2019-01-26T03:07:21.778Z,99102.44
2019-01-26T03:09:52.182Z,99086.98
2019-01-26T03:12:23.512Z,99078.63
2019-01-26T03:14:54.564Z,99079.33
2019-01-26T03:17:25.985Z,99069.81
2019-01-26T03:19:56.519Z,99066.35
2019-01-26T03:22:27.619Z,99067.70
2019-01-26T03:24:58.598Z,99060.55
2019-01-26T03:27:29.602Z,99057.66
2019-01-26T03:30:00.574Z,99057.00
2019-01-26T03:32:31.366Z,99051.81
2019-01-26T03:35:02.358Z,99054.82
2019-01-26T03:37:33.351Z,99045.68
2019-01-26T03:40:03.745Z,99075.11
2019-01-26T03:42:35.313Z,99039.23
2019-01-26T03:45:06.854Z,99011.77
2019-01-26T03:47:37.268Z,99028.14
2019-01-26T03:50:08.535Z,98978.37
2019-01-26T03:52:38.949Z,98996.63
2019-01-26T03:55:11.375Z,98960.66
2019-01-26T03:57:43.784Z,98986.64
2019-01-26T04:00:17.282Z,99003.88
2019-01-26T04:02:47.654Z,98998.39
2019-01-26T04:05:18.779Z,98991.58
2019-01-26T04:07:50.820Z,98992.79
2019-01-26T04:10:21.863Z,98994.43
2019-01-26T04:12:54.724Z,98991.05
2019-01-26T04:15:25.808Z,99028.27
2019-01-26T04:17:57.623Z,99003.22
2019-01-26T04:20:32.651Z,99004.42
2019-01-26T04:23:04.877Z,98997.68
2019-01-26T04:25:35.930Z,99025.81
2019-01-26T04:28:06.956Z,98984.72
2019-01-26T04:30:37.803Z,99002.23
2019-01-26T04:33:08.842Z,98962.31
2019-01-26T04:35:41.299Z,98996.09
2019-01-26T04:38:17.379Z,98978.17
2019-01-26T04:40:47.883Z,98969.85
2019-01-26T04:43:18.848Z,98963.53
2019-01-26T04:45:52.002Z,98958.29
2019-01-26T04:48:22.982Z,98958.27
2019-01-26T04:50:54.001Z,98947.92
2019-01-26T04:53:25.122Z,98966.88
2019-01-26T04:55:55.908Z,98973.61
2019-01-26T04:58:27.036Z,98951.53
2019-01-26T05:00:58.451Z,98933.09
2019-01-26T05:03:29.141Z,98925.09
2019-01-26T05:06:00.051Z,98935.27
2019-01-26T05:08:33.043Z,98907.21
2019-01-26T05:11:05.310Z,98918.47
2019-01-26T05:13:37.055Z,98898.89
2019-01-26T05:16:10.153Z,98918.13
2019-01-26T05:18:42.589Z,98903.45
2019-01-26T05:21:15.082Z,98898.04
2019-01-26T05:23:46.056Z,98902.20
2019-01-26T05:26:17.152Z,98897.64
2019-01-26T05:28:48.140Z,98893.92
2019-01-26T05:31:20.666Z,98895.13
2019-01-26T05:33:51.135Z,98898.27
2019-01-26T05:36:23.145Z,98879.81
2019-01-26T05:38:55.266Z,98863.53
2019-01-26T05:41:27.158Z,98852.78
2019-01-26T05:44:00.181Z,98865.30
2019-01-26T05:46:33.976Z,98859.11
2019-01-26T05:49:06.205Z,98856.70
2019-01-26T05:51:36.555Z,98848.37
2019-01-26T05:54:07.349Z,98841.67
2019-01-26T05:56:38.223Z,98830.01
2019-01-26T05:59:09.372Z,98832.71
2019-01-26T06:01:40.246Z,98857.60
2019-01-26T06:04:11.507Z,98805.33
2019-01-26T06:06:43.868Z,98816.33
2019-01-26T06:09:14.395Z,98791.67
2019-01-26T06:11:45.350Z,98800.16
2019-01-26T06:14:17.394Z,98780.06
2019-01-26T06:16:49.259Z,98769.62
2019-01-26T06:19:20.249Z,98767.96
2019-01-26T06:21:51.320Z,98812.00
2019-01-26T06:24:22.285Z,98770.55
2019-01-26T06:26:53.204Z,98763.41
2019-01-26T06:29:24.283Z,98772.22
2019-01-26T06:31:55.099Z,98782.66
2019-01-26T06:34:26.082Z,98799.05
2019-01-26T06:36:56.424Z,98800.39
2019-01-26T06:39:27.970Z,98771.96
2019-01-26T06:41:58.409Z,98773.66
2019-01-26T06:44:29.880Z,98784.17
2019-01-26T06:47:00.823Z,98779.99
2019-01-26T06:49:31.580Z,98761.97
2019-01-26T06:52:02.641Z,98763.70
2019-01-26T06:54:33.421Z,98803.61
2019-01-26T06:57:04.527Z,98755.89
2019-01-26T06:59:35.509Z,98763.48
2019-01-26T07:02:06.547Z,98775.73
2019-01-26T07:04:52.073Z,98822.74
2019-01-26T07:07:22.444Z,98771.55
2019-01-26T07:09:52.986Z,98772.77
2019-01-26T07:12:23.592Z,98790.44
2019-01-26T07:14:56.216Z,98790.81
2019-01-26T07:17:26.919Z,98770.25
2019-01-26T07:19:57.647Z,98784.08
2019-01-26T07:22:29.262Z,98785.77
2019-01-26T07:24:59.594Z,98788.70
2019-01-26T07:27:30.648Z,98796.67
2019-01-26T07:30:01.673Z,98805.05
2019-01-26T07:32:32.608Z,98778.59
2019-01-26T07:35:03.717Z,98797.96
2019-01-26T07:37:35.023Z,98792.52
2019-01-26T07:40:06.994Z,98870.60
2019-01-26T07:42:39.645Z,98800.52
2019-01-26T07:45:11.406Z,98794.66
2019-01-26T07:47:43.394Z,98800.16
2019-01-26T07:50:16.929Z,98813.23
2019-01-26T07:52:50.453Z,98783.38
2019-01-26T07:55:23.765Z,98794.38
2019-01-26T07:57:54.952Z,98787.60
2019-01-26T08:00:28.134Z,98799.34
2019-01-26T08:02:58.754Z,98797.36
2019-01-26T08:05:29.806Z,98787.25
2019-01-26T08:08:00.701Z,98780.59
2019-01-26T08:10:31.370Z,98761.26
2019-01-26T08:13:02.811Z,98767.09
2019-01-26T08:15:36.014Z,98787.16
2019-01-26T08:18:09.897Z,98788.83
2019-01-26T08:20:41.837Z,98772.05
2019-01-26T08:23:12.198Z,98793.05
2019-01-26T08:25:43.930Z,98795.16
2019-01-26T08:28:15.125Z,98778.38
2019-01-26T08:30:47.930Z,98777.94
2019-01-26T08:33:22.629Z,98782.13
2019-01-26T08:35:53.926Z,98772.05
2019-01-26T08:38:24.967Z,98780.45
2019-01-26T08:40:56.007Z,98769.99
2019-01-26T08:43:26.991Z,98778.78
2019-01-26T08:45:57.909Z,98771.20
2019-01-26T08:48:31.328Z,98773.72
2019-01-26T08:51:02.741Z,98763.20
2019-01-26T08:53:33.718Z,98763.31
2019-01-26T08:56:04.540Z,98782.59
2019-01-26T08:58:35.593Z,98761.62
2019-01-26T09:01:06.107Z,98759.53
2019-01-26T09:03:55.278Z,98759.97
2019-01-26T09:06:30.751Z,98776.38
2019-01-26T09:09:01.259Z,98758.41
2019-01-26T09:11:34.007Z,98760.11
2019-01-26T09:14:05.920Z,98733.20
2019-01-26T09:16:39.223Z,98746.62
2019-01-26T09:19:10.106Z,98774.70
2019-01-26T09:21:41.399Z,98755.06
2019-01-26T09:24:11.846Z,98752.98
2019-01-26T09:26:44.284Z,98753.81
2019-01-26T09:29:15.233Z,98731.15
2019-01-26T09:31:48.189Z,98728.21
2019-01-26T09:34:19.206Z,98738.77
2019-01-26T09:36:50.029Z,98730.80
2019-01-26T09:39:21.273Z,98717.33
2019-01-26T09:41:52.229Z,98731.15
2019-01-26T09:44:23.125Z,98726.09
2019-01-26T09:46:54.028Z,98713.06
2019-01-26T09:49:25.198Z,98698.83
2019-01-26T09:51:56.300Z,98697.55
2019-01-26T09:54:27.080Z,98696.31
2019-01-26T09:56:57.923Z,98708.97
2019-01-26T09:59:28.669Z,98709.86
2019-01-26T10:01:59.658Z,98705.27
2019-01-26T10:04:30.760Z,98727.58
2019-01-26T10:07:01.434Z,98693.16
2019-01-26T10:09:32.406Z,98680.97
2019-01-26T10:12:03.368Z,98691.09
2019-01-26T10:14:34.342Z,98695.31
2019-01-26T10:17:05.819Z,98690.27
2019-01-26T10:19:36.247Z,98686.08
2019-01-26T10:22:08.864Z,98684.47
2019-01-26T10:24:41.462Z,98676.52
2019-01-26T10:27:11.961Z,98714.80
2019-01-26T10:29:43.426Z,98674.43
2019-01-26T10:32:15.439Z,98665.22
2019-01-26T10:34:48.553Z,98673.63
2019-01-26T10:37:24.071Z,98690.89
2019-01-26T10:39:56.898Z,98671.97
2019-01-26T10:42:30.651Z,98653.45
2019-01-26T10:45:01.205Z,98648.41
2019-01-26T10:47:31.999Z,98663.16
2019-01-26T10:50:03.036Z,98654.30
2019-01-26T10:52:34.003Z,98665.69
2019-01-26T10:55:06.749Z,98664.84
2019-01-26T10:57:38.498Z,98656.86
2019-01-26T11:00:13.261Z,98647.56
2019-01-26T11:02:43.704Z,98644.63
2019-01-26T11:05:15.508Z,98639.58
2019-01-26T11:07:48.715Z,98639.98
2019-01-26T11:10:20.794Z,98642.09
2019-01-26T11:12:52.596Z,98622.30
2019-01-26T11:15:24.574Z,98629.04
2019-01-26T11:17:57.535Z,98628.17
2019-01-26T11:20:28.596Z,98610.91
2019-01-26T11:22:59.712Z,98615.13
2019-01-26T11:25:30.773Z,98641.66
2019-01-26T11:28:01.604Z,98618.91
2019-01-26T11:30:33.893Z,98625.22
2019-01-26T11:33:05.622Z,98620.59
2019-01-26T11:35:37.717Z,98605.83
2019-01-26T11:38:08.742Z,98593.18
2019-01-26T11:40:39.700Z,98589.78
2019-01-26T11:43:12.215Z,98603.70
2019-01-26T11:46:06.650Z,98592.34
2019-01-26T11:48:42.975Z,98585.60
2019-01-26T11:51:42.589Z,98591.89
2019-01-26T11:54:14.865Z,98589.38
2019-01-26T11:56:51.762Z,98597.78
2019-01-26T11:59:22.887Z,98569.61
2019-01-26T12:02:12.721Z,98569.61
2019-01-26T12:05:05.079Z,98571.28
2019-01-26T12:07:38.305Z,98553.15
2019-01-26T12:10:11.136Z,98560.69
2019-01-26T12:12:42.779Z,98546.33
2019-01-26T12:15:15.989Z,98546.33
2019-01-26T12:17:47.003Z,98558.97
2019-01-26T12:20:19.138Z,98558.97
2019-01-26T12:22:49.521Z,98555.64
2019-01-26T12:25:21.066Z,98555.64
2019-01-26T12:27:51.521Z,98536.69
2019-01-26T12:30:23.997Z,98529.48
2019-01-26T12:32:56.178Z,98539.98
2019-01-26T12:35:27.097Z,98546.29
2019-01-26T12:37:58.046Z,98546.29
2019-01-26T12:40:29.158Z,98529.02
2019-01-26T12:42:59.987Z,98524.04
2019-01-26T12:45:30.973Z,98524.04
2019-01-26T12:48:02.176Z,98553.98
2019-01-26T12:50:32.885Z,98514.37
2019-01-26T12:53:03.848Z,98512.78
2019-01-26T12:55:34.847Z,98512.78
2019-01-26T12:58:05.900Z,98514.45
2019-01-26T13:00:36.774Z,98514.47
2019-01-26T13:03:07.179Z,98511.11
2019-01-26T13:05:38.046Z,98522.47
2019-01-26T13:08:10.060Z,98514.47
2019-01-26T13:10:44.084Z,98506.47
2019-01-26T13:13:15.246Z,98516.14
2019-01-26T13:15:48.208Z,98500.55
2019-01-26T13:18:20.470Z,98488.80
2019-01-26T13:20:53.207Z,98488.80
2019-01-26T13:23:27.730Z,98501.44
2019-01-26T13:26:02.923Z,98499.33
2019-01-26T13:28:35.208Z,98487.52
2019-01-26T13:31:06.286Z,98487.52
2019-01-26T13:33:40.777Z,98496.40
2019-01-26T13:36:11.527Z,98509.42
2019-01-26T13:38:43.205Z,98502.28
2019-01-26T13:41:15.258Z,98499.78
2019-01-26T13:43:46.299Z,98499.37
2019-01-26T13:46:19.334Z,98493.89
2019-01-26T13:48:51.359Z,98487.55
2019-01-26T13:51:24.583Z,98501.03
2019-01-26T13:53:57.391Z,98491.78
2019-01-26T13:56:28.345Z,98490.52
2019-01-26T13:58:59.230Z,98495.14
2019-01-26T14:01:30.256Z,98482.96
2019-01-26T14:04:01.113Z,98480.83
2019-01-26T14:06:32.115Z,98487.56
2019-01-26T14:09:04.806Z,98482.92
2019-01-26T14:11:36.429Z,98490.91
2019-01-26T14:14:07.728Z,98478.70
2019-01-26T14:16:38.633Z,98473.67
2019-01-26T14:19:10.629Z,98467.31
2019-01-26T14:21:43.406Z,98473.62
2019-01-26T14:24:15.529Z,98472.38
2019-01-26T14:26:50.285Z,98468.98
2019-01-26T14:29:20.687Z,98467.27
2019-01-26T14:31:53.589Z,98482.44
2019-01-26T14:34:24.580Z,98463.47
2019-01-26T14:36:55.618Z,98463.47
2019-01-26T14:39:26.521Z,98455.47
2019-01-26T14:41:58.491Z,98463.42
2019-01-26T14:44:31.458Z,98445.30
2019-01-26T14:47:02.589Z,98445.30
2019-01-26T14:49:33.568Z,98444.91
2019-01-26T14:52:04.343Z,98460.90
2019-01-26T14:54:35.559Z,98450.36
2019-01-26T14:57:06.619Z,98451.59
2019-01-26T14:59:38.156Z,98446.13
2019-01-26T15:02:08.644Z,98442.27
2019-01-26T15:04:39.493Z,98442.27
2019-01-26T15:07:10.432Z,98421.64
2019-01-26T15:09:41.253Z,98447.75
2019-01-26T15:12:11.807Z,98416.91
2019-01-26T15:14:42.768Z,98425.33
2019-01-26T15:17:14.289Z,98440.96
2019-01-26T15:19:44.766Z,98428.35
2019-01-26T15:22:15.739Z,98429.13
2019-01-26T15:24:46.884Z,98443.02
2019-01-26T15:27:18.130Z,98443.02
2019-01-26T15:29:48.742Z,98433.31
2019-01-26T15:32:20.129Z,98412.23
2019-01-26T15:34:51.817Z,98427.82
2019-01-26T15:37:23.810Z,98427.82
2019-01-26T15:39:55.948Z,98420.22
2019-01-26T15:42:26.789Z,98420.22
2019-01-26T15:44:58.766Z,98435.39
2019-01-26T15:47:31.720Z,98425.66
2019-01-26T15:50:03.025Z,98410.95
2019-01-26T15:52:34.038Z,98423.95
2019-01-26T15:55:05.426Z,98421.33
2019-01-26T15:57:35.863Z,98418.80
2019-01-26T16:00:09.412Z,98418.80
2019-01-26T16:02:39.963Z,98416.20
2019-01-26T16:05:13.714Z,98442.75
2019-01-26T16:07:44.983Z,98442.75
2019-01-26T16:10:18.050Z,98432.20
2019-01-26T16:12:49.978Z,98444.02
2019-01-26T16:15:24.609Z,98438.11
2019-01-26T16:17:55.305Z,98439.35
2019-01-26T16:20:25.957Z,98435.53
2019-01-26T16:22:57.431Z,98431.34
2019-01-26T16:25:27.993Z,98431.34
2019-01-26T16:27:58.949Z,98437.72
2019-01-26T16:30:31.892Z,98437.72
2019-01-26T16:33:04.030Z,98451.59
2019-01-26T16:35:34.972Z,98441.44
2019-01-26T16:38:06.618Z,98446.95
2019-01-26T16:40:37.406Z,98454.50
2019-01-26T16:43:08.165Z,98454.50
2019-01-26T16:45:40.310Z,98439.75
2019-01-26T16:48:13.446Z,98453.63
2019-01-26T16:50:45.998Z,98442.23
2019-01-26T16:53:18.188Z,98447.67
2019-01-26T16:55:49.162Z,98447.67
2019-01-26T16:58:21.065Z,98477.61
2019-01-26T17:00:56.276Z,98455.20
2019-01-26T17:03:27.185Z,98462.78
2019-01-26T17:05:59.132Z,98448.83
2019-01-26T17:08:29.785Z,98458.90
2019-01-26T17:11:03.262Z,98455.97
2019-01-26T17:13:35.174Z,98455.97
2019-01-26T17:16:05.523Z,98443.66
2019-01-26T17:18:37.263Z,98460.09
2019-01-26T17:21:07.575Z,98448.67
2019-01-26T17:23:38.185Z,98448.67
2019-01-26T17:26:09.330Z,98452.86
2019-01-26T17:28:40.237Z,98457.90
2019-01-26T17:31:11.312Z,98443.97
2019-01-26T17:33:42.201Z,98443.97
2019-01-26T17:36:12.754Z,98439.30
2019-01-26T17:38:44.288Z,98439.30
2019-01-26T17:41:15.363Z,98452.78
2019-01-26T17:43:46.378Z,98451.16
2019-01-26T17:46:18.655Z,98451.16
2019-01-26T17:48:51.444Z,98427.50
2019-01-26T17:51:22.768Z,98427.50
2019-01-26T17:53:56.393Z,98436.28
2019-01-26T17:56:27.330Z,98441.32
2019-01-26T17:58:58.446Z,98446.87
2019-01-26T18:01:29.536Z,98441.32
2019-01-26T18:04:00.535Z,98436.70
2019-01-26T18:06:33.461Z,98444.34
2019-01-26T18:09:06.679Z,98455.77
2019-01-26T18:11:39.506Z,98452.33
2019-01-26T18:14:11.089Z,98452.33
2019-01-26T18:16:41.586Z,98436.70
2019-01-26T18:19:12.155Z,98454.84
2019-01-26T18:21:45.172Z,98454.84
2019-01-26T18:24:18.566Z,98443.06
2019-01-26T18:26:51.518Z,98443.44
2019-01-26T18:29:24.494Z,98443.44
2019-01-26T18:31:56.442Z,98433.81
2019-01-26T18:34:27.645Z,98448.89
2019-01-26T18:37:00.548Z,98448.89
2019-01-26T18:39:32.038Z,98438.81
2019-01-26T18:42:02.699Z,98443.48
2019-01-26T18:44:33.537Z,98460.78
2019-01-26T18:47:04.607Z,98437.49
2019-01-26T18:49:35.759Z,98437.49
2019-01-26T18:52:06.610Z,98439.23
2019-01-26T18:54:37.624Z,98444.34
2019-01-26T18:57:09.305Z,98439.27
2019-01-26T18:59:39.669Z,98441.35
2019-01-26T19:02:10.549Z,98435.89
2019-01-26T19:04:45.856Z,98435.89
2019-01-26T19:07:18.780Z,98442.62
2019-01-26T19:09:49.768Z,98423.55
2019-01-26T19:12:21.156Z,98423.55
2019-01-26T19:14:53.924Z,98434.56
2019-01-26T19:17:24.773Z,98424.38
2019-01-26T19:19:55.670Z,98419.33
2019-01-26T19:22:26.917Z,98419.33
2019-01-26T19:24:57.926Z,98431.58
2019-01-26T19:27:28.791Z,98428.63
2019-01-26T19:29:59.708Z,98428.92
2019-01-26T19:32:30.925Z,98424.77
2019-01-26T19:35:02.869Z,98431.06
2019-01-26T19:37:36.050Z,98426.48
2019-01-26T19:40:10.512Z,98422.13
2019-01-26T19:42:42.823Z,98432.78
2019-01-26T19:45:16.978Z,98432.78
2019-01-26T19:47:48.040Z,98427.23
2019-01-26T19:50:20.584Z,98427.23
2019-01-26T19:52:50.961Z,98421.26
2019-01-26T19:55:23.986Z,98420.87
2019-01-26T19:57:55.114Z,98419.14
2019-01-26T20:00:26.005Z,98414.50
2019-01-26T20:02:56.920Z,98416.25
2019-01-26T20:05:27.965Z,98414.47
2019-01-26T20:08:00.969Z,98412.41
2019-01-26T20:10:31.464Z,98418.78
2019-01-26T20:13:03.476Z,98414.50
2019-01-26T20:15:35.080Z,98414.50
2019-01-26T20:18:08.194Z,98419.95
2019-01-26T20:20:39.393Z,98422.03
2019-01-26T20:23:10.027Z,98428.38
2019-01-26T20:25:41.015Z,98420.73
2019-01-26T20:28:12.289Z,98413.88
2019-01-26T20:30:43.126Z,98418.63
2019-01-26T20:33:14.199Z,98424.54
2019-01-26T20:35:46.536Z,98421.13
2019-01-26T20:38:19.179Z,98416.02
2019-01-26T20:40:50.575Z,98410.92
2019-01-26T20:43:23.117Z,98404.61
2019-01-26T20:45:54.109Z,98405.88
2019-01-26T20:48:25.068Z,98402.05
2019-01-26T20:50:56.218Z,98408.80
2019-01-26T20:53:27.990Z,98420.63
2019-01-26T20:55:59.442Z,98412.61
2019-01-26T20:58:31.238Z,98412.57
2019-01-26T21:01:03.218Z,98428.73
2019-01-26T21:03:35.498Z,98428.73
2019-01-26T21:06:08.303Z,98407.85
2019-01-26T21:08:39.245Z,98409.05
2019-01-26T21:11:10.243Z,98420.49
2019-01-26T21:13:43.285Z,98405.20
2019-01-26T21:16:14.868Z,98425.07
2019-01-26T21:18:45.321Z,98421.62
2019-01-26T21:21:16.284Z,98416.20
2019-01-26T21:23:47.357Z,98426.72
2019-01-26T21:26:18.486Z,98433.45
2019-01-26T21:28:49.517Z,98421.96
2019-01-26T21:31:20.427Z,98437.95
2019-01-26T21:33:51.752Z,98427.84
2019-01-26T21:36:22.520Z,98435.84
2019-01-26T21:38:53.314Z,98430.84
2019-01-26T21:41:24.275Z,98434.96
2019-01-26T21:43:57.111Z,98435.34
2019-01-26T21:46:29.477Z,98422.23
2019-01-26T21:49:00.481Z,98429.46
2019-01-26T21:51:38.966Z,98443.77
2019-01-26T21:54:07.553Z,98431.00
2019-01-26T21:56:40.031Z,98426.34
2019-01-26T21:59:10.452Z,98424.23
2019-01-26T22:01:41.594Z,98430.11
2019-01-26T22:04:12.570Z,98426.34
2019-01-26T22:06:45.509Z,98422.34
2019-01-26T22:09:18.467Z,98422.42
2019-01-26T22:11:49.627Z,98432.27
2019-01-26T22:14:21.586Z,98424.45
2019-01-26T22:16:52.912Z,98432.15
2019-01-26T22:19:23.890Z,98439.88
2019-01-26T22:21:54.532Z,98435.91
2019-01-26T22:24:25.868Z,98436.34
2019-01-26T22:26:56.796Z,98437.86
2019-01-26T22:29:31.303Z,98423.10
2019-01-26T22:32:01.680Z,98423.14
2019-01-26T22:34:33.910Z,98419.25
2019-01-26T22:37:06.812Z,98422.25
2019-01-26T22:39:37.778Z,98423.19
2019-01-26T22:42:08.660Z,98420.34
2019-01-26T22:44:39.613Z,98417.28
2019-01-26T22:47:10.730Z,98417.20
2019-01-26T22:49:41.692Z,98422.98
2019-01-26T22:52:12.526Z,98418.79
2019-01-26T22:54:45.491Z,98418.66
2019-01-26T22:57:15.829Z,98412.16
2019-01-26T22:59:49.761Z,98408.45
2019-01-26T23:02:21.886Z,98402.01
2019-01-26T23:05:18.240Z,98404.40
2019-01-26T23:07:51.926Z,98408.95
2019-01-26T23:10:53.605Z,98392.48
2019-01-26T23:13:37.103Z,98408.91
2019-01-26T23:16:55.362Z,98385.52
2019-01-26T23:19:55.535Z,98376.87
2019-01-26T23:23:05.753Z,98391.64
2019-01-26T23:26:14.354Z,98378.95
2019-01-26T23:29:16.942Z,98382.23
2019-01-26T23:31:49.033Z,98369.68
2019-01-26T23:34:20.419Z,98365.33
2019-01-26T23:36:50.916Z,98366.34
2019-01-26T23:39:22.404Z,98373.02
2019-01-26T23:41:52.918Z,98369.14
2019-01-26T23:44:26.486Z,98372.33
2019-01-26T23:46:58.494Z,98362.48
2019-01-26T23:49:28.858Z,98374.16
2019-01-26T23:51:59.731Z,98366.91
2019-01-26T23:54:30.761Z,98379.25
2019-01-26T23:57:01.735Z,98374.53
2019-01-26T23:59:32.753Z,98371.29
